Hlavní strana
METAR-TAF:

METAR-TAF

Letiště :

Hohenfels, Německo

zeměpisná šířka: 49-13N, zeměpisná délka: 011-50E, výška: 442 m

Aktuální stav počasí

Zpráva byla vytvořena před 1 hodinou a 3 minutami, v 19:56 UTC
Bezvětří
Teplota 20°C
Vlhkost vzduchu 78%
Tlak 1020 hPa
Viditelnost 10 km a více
Jasno

METAR: ETIH 191956Z AUTO 00000KT 9999 CLR 20/16 A3011 RMK AO2 SLP179 T01960156 $

Čas: 22:59 (20:59 UTC)


TAF: chybějící

Stav a předpovědi počasí z více než 4 000 letišť (zprávy METAR a TAF).

Červené a žluté tečky na mapě představují dostupné meteorologické stanice.

Když kurzor umístíte na tečku, zobrazí se název stanice.

Pak kliknutím zobrazíte stav a předpověď počasí.

Chcete-li změnit mapu, kliknutím na zelené tlačítko se znaménkem +mapu přiblížíte, kliknutím na zelené tlačítko se znaménkem – mapu oddálíte a kliknutím na zelené šipky přejdete na sousední mapy.


METAR-TAF: